Time;durP1;ratioP1;P1;durP2;ratioP2;P2;SDS_P1;SDS_P2;PMS_P1;PMS_P2;Temp;Humidity;BMP_temperature;BMP_pressure;BME280_temperature;BME280_humidity;BME280_pressure;Samples;Min_cycle;Max_cycle;Signal;HPM_P1;HPM_P2
2022/06/12 00:00:10;;;;;;;5.43;2.20;;;22.50;92.20;;;;;;5152712;27;20023;-69
2022/06/12 00:02:36;;;;;;;3.85;1.88;;;22.60;92.30;;;;;;5152804;27;20065;-69
2022/06/12 00:05:03;;;;;;;2.95;1.90;;;22.60;92.40;;;;;;5156370;27;20096;-69
2022/06/12 00:07:28;;;;;;;;;;;22.60;92.20;;;;;;5155670;27;20403;-70
2022/06/12 00:09:54;;;;;;;4.07;2.05;;;22.60;92.40;;;;;;5156611;27;19909;-70
2022/06/12 00:12:21;;;;;;;5.70;2.47;;;22.60;92.40;;;;;;5156537;27;20038;-69
2022/06/12 00:14:47;;;;;;;6.82;2.40;;;22.60;92.40;;;;;;5156627;27;20050;-69
2022/06/12 00:17:13;;;;;;;5.18;2.28;;;22.70;92.40;;;;;;5156465;27;20015;-69
2022/06/12 00:19:40;;;;;;;6.20;2.30;;;22.70;92.20;;;;;;5155057;27;20030;-69
2022/06/12 00:22:07;;;;;;;3.22;2.00;;;22.70;92.30;;;;;;5156799;27;20015;-69
2022/06/12 00:24:33;;;;;;;3.58;2.20;;;22.70;92.30;;;;;;5156723;27;20054;-69
2022/06/12 00:27:00;;;;;;;4.60;2.20;;;22.60;92.50;;;;;;5156265;27;20527;-69
2022/06/12 00:29:32;;;;;;;4.55;2.10;;;22.70;92.60;;;;;;5156543;27;20023;-69
2022/06/12 00:32:06;;;;;;;6.97;2.25;;;22.60;92.70;;;;;;5156241;27;20022;-69
2022/06/12 00:34:39;;;;;;;5.70;1.85;;;22.50;92.80;;;;;;5156156;27;20023;-69
2022/06/12 00:37:06;;;;;;;8.38;2.20;;;22.50;93.10;;;;;;5156696;27;20371;-68
2022/06/12 00:39:32;;;;;;;4.30;2.05;;;22.40;93.20;;;;;;5156155;27;20104;-69
2022/06/12 00:42:00;;;;;;;4.78;2.30;;;22.40;93.50;;;;;;5155924;27;20042;-69
2022/06/12 00:44:31;;;;;;;4.70;1.80;;;22.40;93.70;;;;;;5156307;27;20033;-68
2022/06/12 00:47:00;;;;;;;4.40;2.25;;;22.20;94.20;;;;;;5156324;27;20110;-68
2022/06/12 00:49:32;;;;;;;5.18;2.08;;;22.20;94.50;;;;;;5155726;27;20014;-69
2022/06/12 00:52:14;;;;;;;6.03;2.10;;;22.30;94.70;;;;;;5156294;27;20105;-69
2022/06/12 00:54:43;;;;;;;3.97;2.03;;;22.30;94.80;;;;;;5156096;27;20049;-68
2022/06/12 00:57:11;;;;;;;3.22;2.10;;;22.10;95.20;;;;;;5155477;27;20019;-69
2022/06/12 00:59:58;;;;;;;8.82;2.25;;;22.00;95.70;;;;;;5155662;27;20480;-70
2022/06/12 01:02:28;;;;;;;4.75;2.20;;;21.80;96.20;;;;;;5155585;27;20031;-68
2022/06/12 01:07:48;;;;;;;6.40;2.65;;;21.80;96.80;;;;;;5155504;27;20544;-69
2022/06/12 01:10:18;;;;;;;4.68;2.40;;;21.80;97.10;;;;;;5155783;27;20071;-69
2022/06/12 01:12:52;;;;;;;3.92;2.15;;;21.70;97.40;;;;;;5155604;27;20018;-69
2022/06/12 01:15:30;;;;;;;5.72;2.53;;;21.70;97.90;;;;;;5153096;27;20399;-69
2022/06/12 01:17:57;;;;;;;7.65;2.40;;;21.60;98.30;;;;;;5155665;27;20023;-69
2022/06/12 01:20:27;;;;;;;5.80;2.58;;;21.60;98.60;;;;;;5155233;27;20045;-69
2022/06/12 01:23:12;;;;;;;6.38;2.60;;;21.70;98.90;;;;;;5155273;27;20047;-69
2022/06/12 01:26:00;;;;;;;5.10;2.20;;;21.80;98.80;;;;;;5155049;27;20038;-69
2022/06/12 01:28:47;;;;;;;5.03;2.28;;;21.80;98.70;;;;;;5155019;27;20375;-69
2022/06/12 01:31:50;;;;;;;6.60;2.20;;;21.80;98.90;;;;;;5154997;27;20435;-69
2022/06/12 01:34:29;;;;;;;7.75;2.30;;;21.80;99.20;;;;;;5155229;27;20423;-68
2022/06/12 01:37:05;;;;;;;6.25;2.53;;;21.90;99.40;;;;;;5155133;27;20080;-69
2022/06/12 01:39:53;;;;;;;3.85;2.30;;;21.90;99.60;;;;;;5155281;27;20029;-69
2022/06/12 01:42:40;;;;;;;4.57;2.40;;;21.90;99.70;;;;;;5155145;27;20031;-69
2022/06/12 01:45:21;;;;;;;4.93;2.15;;;21.90;99.70;;;;;;5154956;27;20019;-69
2022/06/12 01:47:56;;;;;;;4.43;2.50;;;22.00;99.80;;;;;;5155126;27;20101;-69
2022/06/12 01:50:48;;;;;;;5.85;2.60;;;22.10;99.80;;;;;;5154763;27;20042;-68
2022/06/12 01:53:50;;;;;;;4.53;2.33;;;22.10;99.90;;;;;;5090627;28;20040;-69
2022/06/12 01:56:43;;;;;;;5.70;2.15;;;22.10;99.90;;;;;;5090820;28;20044;-69
2022/06/12 01:59:20;;;;;;;4.20;2.10;;;22.10;99.90;;;;;;5090408;28;20024;-68
2022/06/12 02:02:03;;;;;;;5.35;2.13;;;22.10;99.90;;;;;;5091055;28;20036;-69
2022/06/12 02:04:38;;;;;;;4.68;2.00;;;22.10;99.90;;;;;;5073755;28;20093;-68
2022/06/12 02:07:14;;;;;;;4.50;2.22;;;22.10;99.90;;;;;;5090571;28;20062;-68
2022/06/12 02:09:53;;;;;;;4.78;2.35;;;22.10;99.90;;;;;;5091133;28;20043;-69
2022/06/12 02:15:23;;;;;;;8.30;2.50;;;21.90;99.90;;;;;;5090921;28;20566;-69
2022/06/12 02:18:01;;;;;;;5.15;2.42;;;21.90;99.90;;;;;;5090587;28;20057;-69
2022/06/12 02:20:34;;;;;;;4.50;2.20;;;22.00;99.90;;;;;;5090705;28;20098;-70
2022/06/12 02:23:07;;;;;;;5.25;2.30;;;22.00;99.90;;;;;;5090489;28;20060;-68
2022/06/12 02:25:36;;;;;;;5.03;2.33;;;22.00;99.90;;;;;;5090686;28;20082;-69
2022/06/12 02:28:32;;;;;;;4.65;2.30;;;21.90;99.90;;;;;;5056838;28;20050;-69
2022/06/12 02:31:04;;;;;;;5.80;2.30;;;21.90;99.90;;;;;;5145121;27;20030;-69
2022/06/12 02:33:36;;;;;;;5.30;2.70;;;21.90;99.90;;;;;;5154050;27;20023;-69
2022/06/12 02:36:12;;;;;;;8.32;2.60;;;21.90;99.90;;;;;;5153980;27;20450;-68
2022/06/12 02:38:49;;;;;;;4.25;2.25;;;21.90;99.90;;;;;;5154257;27;20500;-69
2022/06/12 02:41:25;;;;;;;;;;;22.00;99.90;;;;;;5154261;27;20029;-69
2022/06/12 02:43:57;;;;;;;8.23;2.40;;;22.00;99.90;;;;;;5153742;27;19907;-68
2022/06/12 02:46:33;;;;;;;4.45;2.13;;;22.00;99.90;;;;;;5154232;27;20129;-69
2022/06/12 02:48:59;;;;;;;;;;;22.00;99.90;;;;;;5154064;27;20096;-69
2022/06/12 02:51:39;;;;;;;6.60;2.65;;;22.00;99.90;;;;;;5153620;27;20006;-69
2022/06/12 02:54:17;;;;;;;4.85;2.60;;;22.00;99.90;;;;;;5154006;27;20029;-69
2022/06/12 02:56:49;;;;;;;4.75;2.30;;;22.00;99.90;;;;;;5154157;27;20023;-70
2022/06/12 03:00:00;;;;;;;5.10;2.38;;;22.00;99.90;;;;;;5153955;27;20023;-69
2022/06/12 03:02:32;;;;;;;4.88;2.33;;;22.00;99.90;;;;;;5089291;28;20048;-69
2022/06/12 03:05:24;;;;;;;4.78;2.30;;;22.00;99.90;;;;;;5089560;28;20062;-68
2022/06/12 03:08:00;;;;;;;5.90;2.38;;;22.00;99.90;;;;;;5089569;28;20052;-68
2022/06/12 03:10:40;;;;;;;5.90;2.28;;;22.00;99.90;;;;;;5090120;28;20028;-69
2022/06/12 03:13:09;;;;;;;4.00;2.05;;;22.10;99.90;;;;;;5089551;28;20055;-69
2022/06/12 03:15:40;;;;;;;5.15;2.20;;;22.00;99.90;;;;;;5089894;28;20071;-68
2022/06/12 03:18:11;;;;;;;3.63;2.10;;;22.10;99.90;;;;;;5089604;28;20107;-69
2022/06/12 03:20:54;;;;;;;4.07;2.20;;;22.10;99.90;;;;;;5089816;28;20024;-68
2022/06/12 03:23:54;;;;;;;4.50;2.50;;;22.10;99.90;;;;;;5089939;28;20115;-69
2022/06/12 03:26:34;;;;;;;4.50;2.10;;;22.10;99.90;;;;;;5089361;28;20541;-69
2022/06/12 03:29:08;;;;;;;5.78;2.40;;;22.10;99.90;;;;;;5089940;28;20032;-69
2022/06/12 03:32:12;;;;;;;5.13;2.25;;;22.00;99.90;;;;;;5089920;28;20055;-69
2022/06/12 03:35:10;;;;;;;3.35;1.92;;;22.00;99.90;;;;;;5071589;28;20076;-69
2022/06/12 03:38:00;;;;;;;7.00;2.40;;;22.00;99.90;;;;;;5133152;27;20058;-70
2022/06/12 03:40:47;;;;;;;4.47;2.25;;;22.00;99.90;;;;;;5157646;27;20411;-68
2022/06/12 03:43:51;;;;;;;4.40;2.38;;;22.00;99.90;;;;;;5157447;27;20038;-68
2022/06/12 03:46:39;;;;;;;5.63;2.10;;;22.00;99.90;;;;;;5154134;27;20035;-68
2022/06/12 03:49:15;;;;;;;4.53;2.15;;;22.00;99.90;;;;;;5157149;27;20102;-68
2022/06/12 03:51:54;;;;;;;5.88;1.80;;;22.00;99.90;;;;;;5157227;27;20042;-68
2022/06/12 03:54:37;;;;;;;4.25;2.20;;;22.10;99.90;;;;;;5157290;27;20030;-68
2022/06/12 04:00:02;;;;;;;4.93;1.98;;;22.20;99.90;;;;;;5157498;27;20178;-68
2022/06/12 04:02:30;;;;;;;4.22;2.03;;;22.20;99.90;;;;;;5157207;27;20042;-69
2022/06/12 04:04:57;;;;;;;6.88;1.80;;;22.30;99.90;;;;;;5157292;27;20050;-69
2022/06/12 04:07:26;;;;;;;6.45;1.98;;;22.40;99.90;;;;;;5157136;27;20076;-68
2022/06/12 04:09:55;;;;;;;5.10;2.40;;;22.30;99.90;;;;;;5157106;27;20049;-69
2022/06/12 04:12:29;;;;;;;6.53;2.00;;;22.40;99.90;;;;;;5157185;27;20419;-68
2022/06/12 04:15:07;;;;;;;5.75;2.10;;;22.40;99.90;;;;;;5156885;27;20431;-68
2022/06/12 04:17:33;;;;;;;4.28;1.90;;;22.40;99.90;;;;;;5157055;27;20053;-68
2022/06/12 04:19:59;;;;;;;3.88;2.30;;;22.30;99.90;;;;;;5156661;27;20459;-68
2022/06/12 04:22:38;;;;;;;5.40;2.20;;;22.40;99.90;;;;;;5156968;27;20019;-68
2022/06/12 04:25:40;;;;;;;4.88;2.03;;;22.40;99.90;;;;;;5156597;27;20086;-68
2022/06/12 04:28:32;;;;;;;6.47;2.00;;;22.40;99.90;;;;;;5156699;27;20371;-69
2022/06/12 04:31:00;;;;;;;7.93;2.20;;;22.40;99.90;;;;;;5156649;27;20042;-68
2022/06/12 04:33:42;;;;;;;8.43;2.63;;;22.50;99.90;;;;;;5156274;27;20109;-69
2022/06/12 04:36:10;;;;;;;4.93;2.20;;;22.50;99.90;;;;;;5155000;27;20035;-69
2022/06/12 04:38:37;;;;;;;4.38;2.00;;;22.60;99.90;;;;;;5154709;27;20019;-69
2022/06/12 04:41:04;;;;;;;4.35;2.33;;;22.60;99.90;;;;;;5156265;27;20037;-68
2022/06/12 04:43:30;;;;;;;5.20;2.30;;;22.60;99.90;;;;;;5156636;27;20018;-68
2022/06/12 04:45:56;;;;;;;5.65;2.10;;;22.70;99.90;;;;;;5156517;27;20026;-68
2022/06/12 04:48:35;;;;;;;5.53;1.90;;;22.70;99.90;;;;;;5154880;27;20018;-68
2022/06/12 04:51:02;;;;;;;6.50;2.00;;;22.90;99.90;;;;;;5155006;27;20030;-69
2022/06/12 04:53:28;;;;;;;4.32;2.13;;;23.00;99.70;;;;;;5155959;27;20553;-69
2022/06/12 04:55:54;;;;;;;3.85;2.17;;;23.10;99.60;;;;;;5154434;27;20509;-69
2022/06/12 04:58:20;;;;;;;7.63;2.10;;;23.30;99.50;;;;;;5156149;27;20023;-69
2022/06/12 05:00:46;;;;;;;3.95;1.90;;;23.70;99.40;;;;;;5155784;27;20117;-69
2022/06/12 05:03:13;;;;;;;4.15;1.80;;;25.30;97.10;;;;;;5155755;27;20038;-69
2022/06/12 05:05:41;;;;;;;4.00;1.70;;;27.60;93.40;;;;;;5155937;27;20042;-69
2022/06/12 05:08:08;;;;;;;3.80;1.58;;;29.80;89.00;;;;;;5155890;27;20078;-69
2022/06/12 05:10:35;;;;;;;4.40;1.50;;;32.00;83.00;;;;;;5155401;27;20025;-70
2022/06/12 05:13:01;;;;;;;2.72;1.35;;;34.00;76.40;;;;;;5155771;27;20102;-70
2022/06/12 05:15:27;;;;;;;;;;;35.60;70.20;;;;;;5156296;27;20328;-70
2022/06/12 05:17:53;;;;;;;4.60;1.23;;;36.80;66.20;;;;;;5155529;27;19910;-69
2022/06/12 05:20:23;;;;;;;2.55;1.23;;;37.90;63.40;;;;;;5155750;27;20030;-70
2022/06/12 05:22:49;;;;;;;3.97;1.10;;;39.00;61.20;;;;;;5155728;27;20132;-70
2022/06/12 05:25:17;;;;;;;3.83;1.10;;;39.90;59.00;;;;;;5153955;27;20553;-70
2022/06/12 05:27:45;;;;;;;3.03;1.10;;;40.20;57.70;;;;;;5155696;27;20045;-70
2022/06/12 05:30:21;;;;;;;2.75;1.10;;;40.80;56.30;;;;;;5155267;27;20019;-70
2022/06/12 05:32:50;;;;;;;3.08;1.10;;;41.70;54.90;;;;;;5155900;27;20027;-70
2022/06/12 05:35:17;;;;;;;4.32;1.20;;;42.40;53.40;;;;;;5155626;27;20410;-70
2022/06/12 05:37:44;;;;;;;5.80;1.00;;;43.10;52.00;;;;;;5155406;27;20045;-70
2022/06/12 05:40:15;;;;;;;3.47;1.20;;;43.60;51.70;;;;;;5155617;27;20419;-70
2022/06/12 05:42:42;;;;;;;2.75;1.20;;;43.40;52.10;;;;;;5155350;27;20359;-70
2022/06/12 05:45:12;;;;;;;4.57;1.38;;;43.80;52.00;;;;;;5155456;27;20046;-71
2022/06/12 05:47:48;;;;;;;3.00;1.20;;;44.00;51.90;;;;;;5155206;27;20075;-71
2022/06/12 05:50:14;;;;;;;5.18;1.10;;;44.10;51.20;;;;;;5154868;27;20030;-70
2022/06/12 05:52:40;;;;;;;4.20;1.20;;;44.30;51.40;;;;;;5154704;27;20030;-71
2022/06/12 05:55:07;;;;;;;4.70;1.40;;;43.50;51.30;;;;;;5153845;27;20504;-71
2022/06/12 05:57:33;;;;;;;5.53;1.20;;;44.10;51.10;;;;;;5153791;27;20082;-68
2022/06/12 05:59:59;;;;;;;7.55;1.20;;;44.90;50.10;;;;;;5154404;27;20026;-68
2022/06/12 06:02:25;;;;;;;5.78;1.13;;;45.00;49.40;;;;;;5153796;27;20046;-68
2022/06/12 06:04:53;;;;;;;3.72;1.05;;;45.30;49.10;;;;;;5152575;27;20025;-68
2022/06/12 06:07:19;;;;;;;4.95;1.30;;;44.60;48.40;;;;;;5154450;27;20022;-71
2022/06/12 06:09:45;;;;;;;2.88;1.15;;;44.40;49.20;;;;;;5154600;27;20011;-71
2022/06/12 06:12:11;;;;;;;3.75;1.10;;;44.70;49.10;;;;;;5154131;27;20186;-69
2022/06/12 06:14:37;;;;;;;4.38;1.30;;;44.70;48.40;;;;;;5154527;27;20110;-69
2022/06/12 06:17:03;;;;;;;4.22;1.30;;;45.30;47.70;;;;;;5154713;27;20030;-69
2022/06/12 06:19:30;;;;;;;4.20;1.20;;;45.70;47.10;;;;;;5154621;27;20119;-70
2022/06/12 06:21:56;;;;;;;5.03;1.33;;;45.40;46.30;;;;;;5152904;27;20383;-69
2022/06/12 06:24:22;;;;;;;4.60;1.20;;;45.50;46.30;;;;;;5154187;27;20467;-69
2022/06/12 06:26:48;;;;;;;3.28;1.20;;;45.20;46.40;;;;;;5153801;27;20034;-69
2022/06/12 06:29:14;;;;;;;2.08;1.00;;;45.60;45.60;;;;;;5153931;27;20513;-69
2022/06/12 06:31:40;;;;;;;5.63;1.27;;;45.90;45.50;;;;;;5154279;27;20026;-70
2022/06/12 06:34:06;;;;;;;4.75;1.20;;;44.70;45.20;;;;;;5154153;27;20019;-69
2022/06/12 06:36:32;;;;;;;3.25;1.25;;;45.50;45.30;;;;;;5154319;27;20039;-69
2022/06/12 06:38:59;;;;;;;3.80;1.00;;;45.60;45.00;;;;;;5154751;27;20530;-69
2022/06/12 06:41:25;;;;;;;3.83;1.27;;;45.40;44.60;;;;;;5154596;27;20027;-69
2022/06/12 06:46:37;;;;;;;3.30;1.10;;;45.80;44.10;;;;;;5154800;27;20111;-70
2022/06/12 06:49:04;;;;;;;4.15;1.40;;;46.50;43.50;;;;;;5154146;27;20043;-70
2022/06/12 06:51:30;;;;;;;4.95;1.23;;;46.70;43.60;;;;;;5154371;27;20029;-70
2022/06/12 06:53:57;;;;;;;7.30;1.30;;;46.30;44.20;;;;;;5153967;27;20090;-69
2022/06/12 06:56:24;;;;;;;5.40;1.40;;;46.80;43.80;;;;;;5153867;27;20035;-69
2022/06/12 06:58:50;;;;;;;8.40;1.50;;;47.10;43.30;;;;;;5153961;27;20030;-69
2022/06/12 07:01:16;;;;;;;6.32;1.20;;;47.00;43.00;;;;;;5153793;27;20386;-69
2022/06/12 07:03:44;;;;;;;6.10;1.40;;;47.50;43.10;;;;;;5153708;27;20042;-69
2022/06/12 07:06:15;;;;;;;3.70;1.42;;;47.50;42.80;;;;;;5154162;27;20019;-69
2022/06/12 07:08:41;;;;;;;7.65;1.60;;;47.20;42.50;;;;;;5154140;27;20427;-68
2022/06/12 07:11:11;;;;;;;12.20;2.42;;;46.90;43.00;;;;;;5153988;27;20026;-69
2022/06/12 07:13:37;;;;;;;7.38;1.90;;;46.00;43.10;;;;;;5153005;27;20019;-69
2022/06/12 07:16:04;;;;;;;4.88;1.80;;;45.80;44.00;;;;;;5153405;27;20435;-69
2022/06/12 07:18:30;;;;;;;11.65;1.60;;;45.20;44.70;;;;;;5153587;27;20418;-69
2022/06/12 07:21:01;;;;;;;5.88;1.70;;;44.30;45.20;;;;;;5153520;27;20458;-68
2022/06/12 07:23:28;;;;;;;5.28;1.65;;;43.60;45.90;;;;;;5153868;27;20122;-68
2022/06/12 07:26:01;;;;;;;8.13;1.90;;;42.50;46.10;;;;;;5153479;27;20018;-68
2022/06/12 07:28:28;;;;;;;5.75;1.45;;;41.50;46.70;;;;;;5153780;27;20027;-68
2022/06/12 07:30:55;;;;;;;4.88;1.65;;;39.90;46.70;;;;;;5153082;27;20111;-71
2022/06/12 07:33:21;;;;;;;4.93;1.45;;;38.50;47.70;;;;;;5153245;27;20065;-71
2022/06/12 07:35:48;;;;;;;4.78;1.30;;;36.60;48.80;;;;;;5153410;27;20035;-68
2022/06/12 07:38:17;;;;;;;5.95;1.45;;;35.70;50.10;;;;;;5152972;27;20019;-68
2022/06/12 07:40:51;;;;;;;3.05;1.40;;;35.20;51.20;;;;;;5153473;27;20113;-68
2022/06/12 07:43:17;;;;;;;5.00;1.50;;;35.10;51.60;;;;;;5153634;27;20062;-70
2022/06/12 07:45:45;;;;;;;5.28;2.10;;;35.20;51.60;;;;;;5153366;27;20390;-70
2022/06/12 07:48:12;;;;;;;7.65;2.47;;;35.50;52.80;;;;;;5153797;27;20470;-70
2022/06/12 07:50:41;;;;;;;5.72;1.95;;;35.40;54.10;;;;;;5153547;27;20130;-70
2022/06/12 07:53:08;;;;;;;4.60;1.88;;;35.50;54.90;;;;;;5153701;27;20026;-70
2022/06/12 07:55:34;;;;;;;5.60;2.00;;;35.60;54.00;;;;;;5152991;27;20058;-70
2022/06/12 07:58:00;;;;;;;9.05;2.67;;;35.40;53.90;;;;;;5153352;27;20038;-70
2022/06/12 08:00:27;;;;;;;4.78;1.92;;;35.30;54.40;;;;;;5153331;27;20032;-70
2022/06/12 08:02:53;;;;;;;7.15;1.75;;;35.10;54.90;;;;;;5152920;27;20050;-70
2022/06/12 08:05:19;;;;;;;;;;;34.70;52.30;;;;;;5153467;27;20019;-70
2022/06/12 08:07:51;;;;;;;5.55;2.00;;;33.90;55.60;;;;;;5152915;27;20043;-71
2022/06/12 08:10:17;;;;;;;9.13;2.30;;;34.10;55.70;;;;;;5152907;27;20054;-70
2022/06/12 08:12:44;;;;;;;;;;;34.10;56.90;;;;;;5153183;27;20018;-70
2022/06/12 08:15:18;;;;;;;4.80;2.20;;;34.10;56.00;;;;;;5152745;27;19911;-70
2022/06/12 08:17:45;;;;;;;5.50;2.17;;;34.00;55.80;;;;;;5153376;27;20025;-70
2022/06/12 08:20:28;;;;;;;;;;;34.20;56.20;;;;;;5153618;27;20031;-71
2022/06/12 08:23:33;;;;;;;4.70;1.95;;;34.40;55.50;;;;;;5153372;27;19925;-70
2022/06/12 08:26:19;;;;;;;6.55;1.95;;;34.50;55.10;;;;;;5156441;27;20091;-70
2022/06/12 08:28:48;;;;;;;;;;;34.10;55.70;;;;;;5157425;27;20046;-70
2022/06/12 08:31:18;;;;;;;5.75;2.10;;;33.80;56.40;;;;;;5156835;27;19975;-70
2022/06/12 08:33:46;;;;;;;5.82;1.95;;;34.00;56.90;;;;;;5156218;27;20072;-71
2022/06/12 08:36:15;;;;;;;10.13;1.90;;;34.10;56.10;;;;;;5156722;27;20035;-71
2022/06/12 08:38:42;;;;;;;7.63;2.30;;;34.40;56.10;;;;;;5156533;27;20063;-70
2022/06/12 08:41:22;;;;;;;5.88;1.80;;;34.80;56.40;;;;;;5156693;27;20034;-71
2022/06/12 08:44:12;;;;;;;5.57;1.98;;;35.10;54.80;;;;;;5155327;27;20025;-71
2022/06/12 08:46:50;;;;;;;8.38;2.53;;;35.10;54.90;;;;;;5157084;27;20027;-71
2022/06/12 08:49:22;;;;;;;7.68;2.05;;;34.80;54.90;;;;;;5156752;27;20023;-70
2022/06/12 08:51:57;;;;;;;9.50;2.10;;;34.70;55.30;;;;;;5156095;27;20054;-71
2022/06/12 08:54:33;;;;;;;8.05;2.63;;;34.40;56.00;;;;;;5156176;27;20068;-70
2022/06/12 08:57:07;;;;;;;8.18;2.63;;;34.50;56.10;;;;;;5156051;27;20031;-69
2022/06/12 08:59:49;;;;;;;7.53;2.30;;;34.30;56.90;;;;;;5155678;27;20388;-69
2022/06/12 09:02:31;;;;;;;5.80;2.17;;;33.80;58.10;;;;;;5155818;27;20070;-69
2022/06/12 09:04:59;;;;;;;3.95;1.90;;;33.40;58.80;;;;;;5155880;27;20027;-71
2022/06/12 09:07:30;;;;;;;6.05;1.95;;;33.20;58.90;;;;;;5155563;27;20015;-70
2022/06/12 09:10:07;;;;;;;6.68;1.90;;;33.00;59.50;;;;;;5155062;27;20053;-70
2022/06/12 09:12:47;;;;;;;4.13;1.90;;;33.00;58.80;;;;;;5155990;27;20506;-71
2022/06/12 09:15:34;;;;;;;5.32;2.10;;;33.10;59.30;;;;;;5156070;27;20030;-72
2022/06/12 09:18:14;;;;;;;6.20;2.20;;;32.90;59.40;;;;;;5156071;27;20018;-71
2022/06/12 09:20:48;;;;;;;4.55;2.10;;;32.40;60.40;;;;;;5153711;27;20082;-71
2022/06/12 09:23:17;;;;;;;4.35;2.20;;;32.40;61.50;;;;;;5154842;27;20035;-71
2022/06/12 09:26:11;;;;;;;6.05;2.05;;;32.60;62.80;;;;;;5156195;27;20019;-71
2022/06/12 09:28:48;;;;;;;5.63;2.00;;;32.80;61.50;;;;;;5155916;27;20030;-71
2022/06/12 09:31:26;;;;;;;7.28;1.92;;;32.90;61.10;;;;;;5155941;27;20037;-71
2022/06/12 09:33:58;;;;;;;9.88;2.22;;;32.80;61.50;;;;;;5155740;27;20027;-71
2022/06/12 09:40:03;;;;;;;6.03;2.00;;;32.70;62.00;;;;;;5149708;27;20059;-71
2022/06/12 09:42:55;;;;;;;7.07;2.20;;;32.10;62.20;;;;;;5155598;27;20106;-71
2022/06/12 09:45:50;;;;;;;9.70;2.40;;;32.20;64.30;;;;;;5155273;27;20026;-70
2022/06/12 09:48:16;;;;;;;12.20;2.38;;;32.60;64.50;;;;;;5155551;27;20037;-71
2022/06/12 09:50:55;;;;;;;21.23;3.00;;;32.50;64.70;;;;;;5155213;27;20034;-71
2022/06/12 09:53:53;;;;;;;10.02;2.30;;;32.50;65.30;;;;;;5154966;27;20071;-70
2022/06/12 09:56:36;;;;;;;6.47;2.30;;;32.20;66.30;;;;;;5146281;27;20039;-70
2022/06/12 09:59:44;;;;;;;11.00;2.78;;;32.60;66.00;;;;;;5155216;27;20026;-71
2022/06/12 10:02:24;;;;;;;5.28;1.83;;;32.70;66.00;;;;;;5146249;27;20039;-69
2022/06/12 10:05:13;;;;;;;5.65;1.95;;;32.60;66.70;;;;;;5155203;27;20026;-69
2022/06/12 10:07:52;;;;;;;6.70;2.20;;;32.40;66.20;;;;;;5154993;27;20015;-70
2022/06/12 10:10:23;;;;;;;7.72;2.28;;;32.10;67.90;;;;;;5155046;27;20023;-70
2022/06/12 10:12:54;;;;;;;5.28;2.00;;;32.10;68.00;;;;;;5154879;27;20060;-70
2022/06/12 10:15:29;;;;;;;5.18;1.95;;;32.40;67.50;;;;;;5154985;27;20371;-70
2022/06/12 10:18:06;;;;;;;6.47;2.50;;;32.80;66.50;;;;;;5154797;27;20011;-71
2022/06/12 10:20:39;;;;;;;7.78;2.50;;;33.00;65.50;;;;;;5154889;27;20049;-71
2022/06/12 10:23:06;;;;;;;6.20;3.13;;;33.00;64.80;;;;;;5154918;27;20367;-70
2022/06/12 10:25:39;;;;;;;6.65;2.90;;;33.00;64.20;;;;;;5154785;27;20079;-70
2022/06/12 10:28:22;;;;;;;6.47;3.00;;;32.90;63.00;;;;;;5154548;27;20023;-70
2022/06/12 10:31:26;;;;;;;6.97;2.55;;;32.50;64.40;;;;;;5154326;27;20034;-70
2022/06/12 10:34:16;;;;;;;7.78;3.88;;;32.80;63.50;;;;;;5090780;28;20111;-70
2022/06/12 10:36:42;;;;;;;9.27;3.88;;;32.90;64.30;;;;;;5090792;28;20138;-70
2022/06/12 10:39:15;;;;;;;7.57;3.38;;;33.20;64.60;;;;;;5090853;28;20028;-71
2022/06/12 10:41:49;;;;;;;7.18;2.10;;;33.30;62.60;;;;;;5090696;28;20503;-70
2022/06/12 10:44:35;;;;;;;8.07;1.95;;;33.60;58.50;;;;;;5090571;28;20111;-70
2022/06/12 10:47:20;;;;;;;8.07;1.90;;;33.50;57.00;;;;;;5089883;28;20111;-69
2022/06/12 10:49:54;;;;;;;3.47;1.20;;;33.70;55.60;;;;;;5090003;28;20464;-70
2022/06/12 10:52:22;;;;;;;4.90;1.77;;;33.80;54.90;;;;;;5090548;28;20072;-70
2022/06/12 10:54:52;;;;;;;6.82;1.60;;;33.50;55.00;;;;;;5090003;28;20031;-70
2022/06/12 10:58:04;;;;;;;6.05;1.80;;;33.50;54.80;;;;;;5089902;28;20130;-70
2022/06/12 11:00:39;;;;;;;4.20;1.50;;;33.50;54.30;;;;;;5013516;28;20435;-69
2022/06/12 11:03:18;;;;;;;3.35;1.30;;;33.30;54.20;;;;;;5029850;28;20076;-69
2022/06/12 11:06:07;;;;;;;3.60;1.40;;;33.00;54.20;;;;;;5108709;28;20090;-70
2022/06/12 11:09:02;;;;;;;8.05;1.70;;;32.60;55.20;;;;;;5110453;28;20039;-70
2022/06/12 11:12:24;;;;;;;7.65;1.70;;;32.90;55.70;;;;;;5110661;28;20026;-70
2022/06/12 11:15:12;;;;;;;3.55;1.40;;;33.30;54.90;;;;;;5069697;28;20106;-70
2022/06/12 11:17:59;;;;;;;2.95;1.50;;;33.20;54.60;;;;;;5069263;28;20029;-70
2022/06/12 11:20:34;;;;;;;5.90;1.38;;;33.30;54.60;;;;;;5070026;28;20051;-70
2022/06/12 11:23:21;;;;;;;2.05;1.13;;;33.60;54.20;;;;;;5069516;28;20110;-70
2022/06/12 11:26:38;;;;;;;6.70;1.50;;;33.20;54.10;;;;;;5069907;28;20060;-70
2022/06/12 11:29:27;;;;;;;3.72;1.67;;;33.60;54.60;;;;;;4990746;28;20035;-69
2022/06/12 11:32:00;;;;;;;4.35;1.38;;;33.50;53.80;;;;;;4990789;28;20371;-69
2022/06/12 11:34:42;;;;;;;6.32;1.35;;;33.50;54.70;;;;;;4990500;28;20109;-70
2022/06/12 11:37:43;;;;;;;7.90;1.70;;;33.70;53.50;;;;;;5049587;28;20053;-70
2022/06/12 11:40:28;;;;;;;4.63;1.80;;;33.80;54.00;;;;;;5049733;28;20044;-70
2022/06/12 11:43:31;;;;;;;6.07;1.50;;;34.10;53.20;;;;;;5049598;28;20021;-70
2022/06/12 11:46:15;;;;;;;5.72;1.70;;;34.20;54.70;;;;;;5049720;28;20120;-70
2022/06/12 11:49:21;;;;;;;7.47;1.50;;;34.30;57.20;;;;;;5049244;28;20210;-70
2022/06/12 11:52:07;;;;;;;4.15;1.60;;;33.90;57.00;;;;;;5089923;28;20134;-69
2022/06/12 11:55:00;;;;;;;6.10;1.63;;;33.40;54.70;;;;;;5089304;28;20114;-70
2022/06/12 11:57:33;;;;;;;8.43;1.60;;;33.80;57.20;;;;;;5089338;28;20032;-70
2022/06/12 12:00:13;;;;;;;9.20;1.80;;;34.10;57.90;;;;;;5132467;27;20038;-70
2022/06/12 12:02:50;;;;;;;4.35;1.58;;;34.40;60.50;;;;;;5157348;27;20111;-70
2022/06/12 12:05:55;;;;;;;6.25;1.60;;;33.90;57.70;;;;;;5157358;27;20034;-69
2022/06/12 12:08:58;;;;;;;4.80;1.60;;;33.40;59.90;;;;;;5157515;27;20530;-70
2022/06/12 12:11:40;;;;;;;5.20;1.45;;;33.50;56.40;;;;;;5157084;27;20018;-70
2022/06/12 12:14:07;;;;;;;6.35;1.75;;;33.30;60.00;;;;;;5155686;27;20022;-70
2022/06/12 12:16:55;;;;;;;9.02;2.20;;;33.00;60.60;;;;;;5157046;27;20079;-70
2022/06/12 12:19:39;;;;;;;5.45;1.67;;;32.90;63.90;;;;;;5156780;27;20083;-70
2022/06/12 12:22:33;;;;;;;5.38;1.80;;;32.70;64.40;;;;;;5157232;27;20106;-70
2022/06/12 12:25:26;;;;;;;5.05;1.60;;;32.70;63.70;;;;;;5157321;27;20023;-70
2022/06/12 12:27:56;;;;;;;5.88;1.38;;;32.70;63.00;;;;;;5150601;27;20084;-70
2022/06/12 12:30:31;;;;;;;6.50;1.63;;;32.90;63.90;;;;;;5156763;27;20049;-69
2022/06/12 12:33:03;;;;;;;7.22;1.48;;;32.80;64.30;;;;;;5156603;27;20027;-70
2022/06/12 12:41:13;;;;;;;5.28;1.70;;;32.70;66.30;;;;;;5157187;27;20042;-70
2022/06/12 12:44:00;;;;;;;8.27;1.95;;;32.70;65.80;;;;;;5156550;27;20439;-70
2022/06/12 12:46:47;;;;;;;6.80;1.90;;;32.80;65.50;;;;;;5156360;27;20071;-70
2022/06/12 12:49:43;;;;;;;6.88;1.67;;;32.80;64.90;;;;;;5156585;27;20030;-70
2022/06/12 12:52:15;;;;;;;3.83;1.52;;;32.90;64.00;;;;;;5156571;27;20038;-70
2022/06/12 12:54:47;;;;;;;4.53;1.50;;;33.00;63.80;;;;;;5156158;27;20445;-70
2022/06/12 12:57:15;;;;;;;3.72;1.30;;;32.90;62.30;;;;;;5156272;27;20066;-70
2022/06/12 12:59:51;;;;;;;6.05;1.60;;;32.90;61.10;;;;;;5156192;27;20022;-70
2022/06/12 13:02:40;;;;;;;5.18;1.65;;;33.40;60.60;;;;;;5155798;27;20051;-70
2022/06/12 13:05:25;;;;;;;7.53;2.05;;;33.40;60.50;;;;;;5156352;27;20403;-70
2022/06/12 13:08:03;;;;;;;;;;;33.30;60.60;;;;;;5156746;27;20095;-70
2022/06/12 13:11:14;;;;;;;3.88;1.30;;;33.50;60.20;;;;;;5155423;27;19934;-70
2022/06/12 13:13:46;;;;;;;3.85;1.45;;;32.90;60.10;;;;;;5091668;28;20134;-70
2022/06/12 13:16:24;;;;;;;4.85;1.60;;;32.70;61.00;;;;;;5092182;28;20040;-70
2022/06/12 13:19:01;;;;;;;3.25;1.55;;;32.40;60.00;;;;;;5092347;28;20028;-70
2022/06/12 13:21:57;;;;;;;4.55;1.40;;;32.30;60.20;;;;;;5092295;28;20102;-70
2022/06/12 13:24:27;;;;;;;4.18;1.20;;;32.50;59.60;;;;;;5091644;28;20051;-70
2022/06/12 13:26:54;;;;;;;3.53;1.33;;;32.90;58.00;;;;;;5091935;28;20133;-70
2022/06/12 13:29:23;;;;;;;3.90;1.30;;;33.30;57.10;;;;;;5091638;28;20028;-69
2022/06/12 13:31:58;;;;;;;5.75;1.35;;;33.60;56.00;;;;;;5091696;28;20039;-70
2022/06/12 13:34:25;;;;;;;3.85;1.30;;;33.60;56.30;;;;;;5092132;28;20028;-70
2022/06/12 13:36:52;;;;;;;2.10;1.13;;;33.60;56.20;;;;;;5091819;28;20032;-70
2022/06/12 13:39:26;;;;;;;4.00;1.40;;;33.20;55.40;;;;;;5091756;28;20354;-70
2022/06/12 13:42:07;;;;;;;2.58;1.17;;;33.30;55.70;;;;;;5091797;28;20452;-70
2022/06/12 13:44:45;;;;;;;2.03;0.98;;;33.50;55.80;;;;;;5130208;27;20060;-70
2022/06/12 13:47:20;;;;;;;3.50;1.40;;;33.20;55.40;;;;;;5155084;27;20091;-71
2022/06/12 13:50:19;;;;;;;3.00;0.95;;;33.10;55.20;;;;;;5154599;27;20061;-70
2022/06/12 13:53:06;;;;;;;5.90;1.10;;;33.00;54.40;;;;;;5153804;27;20071;-70